sensor_id;sensor_type;location;lat;lon;timestamp;P1;durP1;ratioP1;P2;durP2;ratioP2
3415;SDS011;1721;51.238;9.562;2023-07-22T00:00:38;12.33;;;6.23;;
3415;SDS011;1721;51.238;9.562;2023-07-22T00:03:03;15.37;;;5.40;;
3415;SDS011;1721;51.238;9.562;2023-07-22T00:05:29;10.07;;;4.63;;
3415;SDS011;1721;51.238;9.562;2023-07-22T00:07:54;10.97;;;4.90;;
3415;SDS011;1721;51.238;9.562;2023-07-22T00:10:20;9.27;;;4.50;;
3415;SDS011;1721;51.238;9.562;2023-07-22T00:12:45;10.40;;;5.40;;
3415;SDS011;1721;51.238;9.562;2023-07-22T00:15:11;10.57;;;5.97;;
3415;SDS011;1721;51.238;9.562;2023-07-22T00:17:37;11.47;;;5.10;;
3415;SDS011;1721;51.238;9.562;2023-07-22T00:20:05;11.55;;;5.30;;
3415;SDS011;1721;51.238;9.562;2023-07-22T00:22:31;12.80;;;5.50;;
3415;SDS011;1721;51.238;9.562;2023-07-22T00:24:57;9.33;;;4.40;;
3415;SDS011;1721;51.238;9.562;2023-07-22T00:27:25;12.07;;;4.63;;
3415;SDS011;1721;51.238;9.562;2023-07-22T00:29:50;10.97;;;5.03;;
3415;SDS011;1721;51.238;9.562;2023-07-22T00:32:16;8.60;;;4.40;;
3415;SDS011;1721;51.238;9.562;2023-07-22T00:34:41;13.70;;;5.60;;
3415;SDS011;1721;51.238;9.562;2023-07-22T00:37:07;15.07;;;5.00;;
3415;SDS011;1721;51.238;9.562;2023-07-22T00:39:33;9.87;;;4.77;;
3415;SDS011;1721;51.238;9.562;2023-07-22T00:41:59;11.30;;;4.77;;
3415;SDS011;1721;51.238;9.562;2023-07-22T00:44:24;11.37;;;5.43;;
3415;SDS011;1721;51.238;9.562;2023-07-22T00:46:51;11.83;;;5.10;;
3415;SDS011;1721;51.238;9.562;2023-07-22T00:49:20;11.00;;;5.85;;
3415;SDS011;1721;51.238;9.562;2023-07-22T00:51:47;12.60;;;5.13;;
3415;SDS011;1721;51.238;9.562;2023-07-22T00:54:13;13.93;;;5.60;;
3415;SDS011;1721;51.238;9.562;2023-07-22T00:56:39;11.63;;;5.33;;
3415;SDS011;1721;51.238;9.562;2023-07-22T00:59:06;10.57;;;5.40;;
3415;SDS011;1721;51.238;9.562;2023-07-22T01:01:32;10.30;;;5.10;;
3415;SDS011;1721;51.238;9.562;2023-07-22T01:03:57;13.00;;;5.37;;
3415;SDS011;1721;51.238;9.562;2023-07-22T01:06:23;10.33;;;5.03;;
3415;SDS011;1721;51.238;9.562;2023-07-22T01:08:54;16.25;;;6.00;;
3415;SDS011;1721;51.238;9.562;2023-07-22T01:11:19;12.10;;;5.90;;
3415;SDS011;1721;51.238;9.562;2023-07-22T01:13:45;11.47;;;6.03;;
3415;SDS011;1721;51.238;9.562;2023-07-22T01:16:10;14.50;;;5.47;;
3415;SDS011;1721;51.238;9.562;2023-07-22T01:18:36;12.07;;;5.55;;
3415;SDS011;1721;51.238;9.562;2023-07-22T01:21:03;14.02;;;5.40;;
3415;SDS011;1721;51.238;9.562;2023-07-22T01:23:30;17.50;;;5.00;;
3415;SDS011;1721;51.238;9.562;2023-07-22T01:25:56;15.60;;;5.60;;
3415;SDS011;1721;51.238;9.562;2023-07-22T01:28:21;10.80;;;4.83;;
3415;SDS011;1721;51.238;9.562;2023-07-22T01:30:47;14.50;;;6.33;;
3415;SDS011;1721;51.238;9.562;2023-07-22T01:33:13;15.07;;;5.90;;
3415;SDS011;1721;51.238;9.562;2023-07-22T01:35:39;14.40;;;5.93;;
3415;SDS011;1721;51.238;9.562;2023-07-22T01:38:05;13.87;;;6.17;;
3415;SDS011;1721;51.238;9.562;2023-07-22T01:40:30;17.97;;;6.90;;
3415;SDS011;1721;51.238;9.562;2023-07-22T01:42:56;12.53;;;5.67;;
3415;SDS011;1721;51.238;9.562;2023-07-22T01:45:21;10.17;;;5.20;;
3415;SDS011;1721;51.238;9.562;2023-07-22T01:47:47;11.47;;;5.90;;
3415;SDS011;1721;51.238;9.562;2023-07-22T01:50:13;15.20;;;6.27;;
3415;SDS011;1721;51.238;9.562;2023-07-22T01:52:38;12.23;;;5.90;;
3415;SDS011;1721;51.238;9.562;2023-07-22T01:55:04;11.77;;;5.27;;
3415;SDS011;1721;51.238;9.562;2023-07-22T01:57:31;12.90;;;5.65;;
3415;SDS011;1721;51.238;9.562;2023-07-22T01:59:57;14.98;;;6.30;;
3415;SDS011;1721;51.238;9.562;2023-07-22T02:02:22;14.20;;;5.40;;
3415;SDS011;1721;51.238;9.562;2023-07-22T02:04:48;14.57;;;6.07;;
3415;SDS011;1721;51.238;9.562;2023-07-22T02:07:13;12.07;;;5.50;;
3415;SDS011;1721;51.238;9.562;2023-07-22T02:09:40;15.82;;;5.90;;
3415;SDS011;1721;51.238;9.562;2023-07-22T02:12:06;11.80;;;5.80;;
3415;SDS011;1721;51.238;9.562;2023-07-22T02:14:32;13.15;;;5.70;;
3415;SDS011;1721;51.238;9.562;2023-07-22T02:16:58;11.27;;;5.20;;
3415;SDS011;1721;51.238;9.562;2023-07-22T02:19:24;10.50;;;5.70;;
3415;SDS011;1721;51.238;9.562;2023-07-22T02:21:49;10.33;;;5.70;;
3415;SDS011;1721;51.238;9.562;2023-07-22T02:24:15;11.50;;;5.10;;
3415;SDS011;1721;51.238;9.562;2023-07-22T02:26:40;12.30;;;5.03;;
3415;SDS011;1721;51.238;9.562;2023-07-22T02:29:06;13.77;;;5.50;;
3415;SDS011;1721;51.238;9.562;2023-07-22T02:31:32;11.73;;;5.40;;
3415;SDS011;1721;51.238;9.562;2023-07-22T02:33:58;13.87;;;5.00;;
3415;SDS011;1721;51.238;9.562;2023-07-22T02:36:23;20.60;;;5.60;;
3415;SDS011;1721;51.238;9.562;2023-07-22T02:38:49;10.70;;;5.40;;
3415;SDS011;1721;51.238;9.562;2023-07-22T02:41:15;15.07;;;5.97;;
3415;SDS011;1721;51.238;9.562;2023-07-22T02:43:40;15.27;;;7.07;;
3415;SDS011;1721;51.238;9.562;2023-07-22T02:46:06;12.83;;;5.53;;
3415;SDS011;1721;51.238;9.562;2023-07-22T02:48:33;9.65;;;5.50;;
3415;SDS011;1721;51.238;9.562;2023-07-22T02:51:03;14.27;;;5.57;;
3415;SDS011;1721;51.238;9.562;2023-07-22T02:53:30;15.43;;;5.85;;
3415;SDS011;1721;51.238;9.562;2023-07-22T02:55:56;14.40;;;5.50;;
3415;SDS011;1721;51.238;9.562;2023-07-22T02:58:21;14.13;;;6.20;;
3415;SDS011;1721;51.238;9.562;2023-07-22T03:00:47;13.27;;;5.17;;
3415;SDS011;1721;51.238;9.562;2023-07-22T03:03:12;10.90;;;5.63;;
3415;SDS011;1721;51.238;9.562;2023-07-22T03:05:38;11.10;;;5.20;;
3415;SDS011;1721;51.238;9.562;2023-07-22T03:08:03;13.20;;;6.43;;
3415;SDS011;1721;51.238;9.562;2023-07-22T03:10:29;11.63;;;5.90;;
3415;SDS011;1721;51.238;9.562;2023-07-22T03:12:55;14.63;;;6.50;;
3415;SDS011;1721;51.238;9.562;2023-07-22T03:15:21;11.23;;;6.07;;
3415;SDS011;1721;51.238;9.562;2023-07-22T03:17:53;16.52;;;6.15;;
3415;SDS011;1721;51.238;9.562;2023-07-22T03:20:20;15.13;;;6.00;;
3415;SDS011;1721;51.238;9.562;2023-07-22T03:22:47;13.40;;;5.55;;
3415;SDS011;1721;51.238;9.562;2023-07-22T03:25:13;15.20;;;7.00;;
3415;SDS011;1721;51.238;9.562;2023-07-22T03:27:41;14.20;;;6.38;;
3415;SDS011;1721;51.238;9.562;2023-07-22T03:30:09;16.35;;;6.40;;
3415;SDS011;1721;51.238;9.562;2023-07-22T03:32:36;14.88;;;6.75;;
3415;SDS011;1721;51.238;9.562;2023-07-22T03:35:02;12.40;;;6.70;;
3415;SDS011;1721;51.238;9.562;2023-07-22T03:37:28;13.73;;;6.65;;
3415;SDS011;1721;51.238;9.562;2023-07-22T03:39:54;11.63;;;6.50;;
3415;SDS011;1721;51.238;9.562;2023-07-22T03:42:20;11.10;;;5.90;;
3415;SDS011;1721;51.238;9.562;2023-07-22T03:44:45;14.63;;;6.50;;
3415;SDS011;1721;51.238;9.562;2023-07-22T03:47:11;12.97;;;5.80;;
3415;SDS011;1721;51.238;9.562;2023-07-22T03:49:37;17.63;;;6.33;;
3415;SDS011;1721;51.238;9.562;2023-07-22T03:52:02;12.83;;;6.40;;
3415;SDS011;1721;51.238;9.562;2023-07-22T03:54:28;14.97;;;6.80;;
3415;SDS011;1721;51.238;9.562;2023-07-22T03:56:53;13.23;;;6.87;;
3415;SDS011;1721;51.238;9.562;2023-07-22T03:59:19;15.23;;;6.80;;
3415;SDS011;1721;51.238;9.562;2023-07-22T04:01:45;17.33;;;6.30;;
3415;SDS011;1721;51.238;9.562;2023-07-22T04:04:11;15.40;;;6.25;;
3415;SDS011;1721;51.238;9.562;2023-07-22T04:06:37;13.90;;;6.27;;
3415;SDS011;1721;51.238;9.562;2023-07-22T04:09:03;14.20;;;6.50;;
3415;SDS011;1721;51.238;9.562;2023-07-22T04:11:28;12.20;;;5.37;;
3415;SDS011;1721;51.238;9.562;2023-07-22T04:13:54;12.37;;;6.17;;
3415;SDS011;1721;51.238;9.562;2023-07-22T04:16:19;16.10;;;6.80;;
3415;SDS011;1721;51.238;9.562;2023-07-22T04:18:45;20.50;;;7.90;;
3415;SDS011;1721;51.238;9.562;2023-07-22T04:21:11;16.47;;;6.93;;
3415;SDS011;1721;51.238;9.562;2023-07-22T04:23:36;17.57;;;7.27;;
3415;SDS011;1721;51.238;9.562;2023-07-22T04:26:02;13.53;;;6.13;;
3415;SDS011;1721;51.238;9.562;2023-07-22T04:28:32;17.38;;;6.95;;
3415;SDS011;1721;51.238;9.562;2023-07-22T04:30:59;14.25;;;6.90;;
3415;SDS011;1721;51.238;9.562;2023-07-22T04:33:25;12.90;;;6.90;;
3415;SDS011;1721;51.238;9.562;2023-07-22T04:35:53;18.10;;;7.05;;
3415;SDS011;1721;51.238;9.562;2023-07-22T04:38:20;18.92;;;7.28;;
3415;SDS011;1721;51.238;9.562;2023-07-22T04:40:46;16.33;;;7.60;;
3415;SDS011;1721;51.238;9.562;2023-07-22T04:43:11;21.30;;;7.60;;
3415;SDS011;1721;51.238;9.562;2023-07-22T04:45:37;17.47;;;7.90;;
3415;SDS011;1721;51.238;9.562;2023-07-22T04:48:06;17.42;;;8.00;;
3415;SDS011;1721;51.238;9.562;2023-07-22T04:50:32;19.70;;;8.00;;
3415;SDS011;1721;51.238;9.562;2023-07-22T04:52:58;18.58;;;7.65;;
3415;SDS011;1721;51.238;9.562;2023-07-22T04:55:24;24.40;;;8.50;;
3415;SDS011;1721;51.238;9.562;2023-07-22T04:57:51;16.17;;;7.95;;
3415;SDS011;1721;51.238;9.562;2023-07-22T05:00:16;16.93;;;7.97;;
3415;SDS011;1721;51.238;9.562;2023-07-22T05:02:45;18.17;;;7.20;;
3415;SDS011;1721;51.238;9.562;2023-07-22T05:05:14;17.50;;;7.90;;
3415;SDS011;1721;51.238;9.562;2023-07-22T05:07:40;20.95;;;8.02;;
3415;SDS011;1721;51.238;9.562;2023-07-22T05:10:07;15.27;;;7.57;;
3415;SDS011;1721;51.238;9.562;2023-07-22T05:12:37;15.65;;;7.82;;
3415;SDS011;1721;51.238;9.562;2023-07-22T05:15:06;12.52;;;6.28;;
3415;SDS011;1721;51.238;9.562;2023-07-22T05:17:32;16.53;;;7.20;;
3415;SDS011;1721;51.238;9.562;2023-07-22T05:19:57;14.23;;;6.83;;
3415;SDS011;1721;51.238;9.562;2023-07-22T05:22:23;15.80;;;7.30;;
3415;SDS011;1721;51.238;9.562;2023-07-22T05:24:49;13.77;;;6.20;;
3415;SDS011;1721;51.238;9.562;2023-07-22T05:27:15;15.20;;;6.47;;
3415;SDS011;1721;51.238;9.562;2023-07-22T05:29:41;11.88;;;5.75;;
3415;SDS011;1721;51.238;9.562;2023-07-22T05:32:07;13.33;;;6.50;;
3415;SDS011;1721;51.238;9.562;2023-07-22T05:34:33;14.07;;;6.50;;
3415;SDS011;1721;51.238;9.562;2023-07-22T05:36:58;13.20;;;6.03;;
3415;SDS011;1721;51.238;9.562;2023-07-22T05:39:24;17.30;;;6.30;;
3415;SDS011;1721;51.238;9.562;2023-07-22T05:41:50;17.00;;;6.10;;
3415;SDS011;1721;51.238;9.562;2023-07-22T05:44:16;11.90;;;5.67;;
3415;SDS011;1721;51.238;9.562;2023-07-22T05:46:41;13.20;;;6.20;;
3415;SDS011;1721;51.238;9.562;2023-07-22T05:49:07;20.13;;;6.40;;
3415;SDS011;1721;51.238;9.562;2023-07-22T05:51:33;9.97;;;4.60;;
3415;SDS011;1721;51.238;9.562;2023-07-22T05:53:59;11.57;;;4.73;;
3415;SDS011;1721;51.238;9.562;2023-07-22T05:56:24;12.20;;;5.23;;
3415;SDS011;1721;51.238;9.562;2023-07-22T05:58:50;15.60;;;6.00;;
3415;SDS011;1721;51.238;9.562;2023-07-22T06:01:16;13.33;;;5.40;;
3415;SDS011;1721;51.238;9.562;2023-07-22T06:03:42;10.43;;;5.30;;
3415;SDS011;1721;51.238;9.562;2023-07-22T06:06:08;11.47;;;5.40;;
3415;SDS011;1721;51.238;9.562;2023-07-22T06:08:35;13.07;;;5.93;;
3415;SDS011;1721;51.238;9.562;2023-07-22T06:11:00;11.50;;;5.57;;
3415;SDS011;1721;51.238;9.562;2023-07-22T06:13:26;11.60;;;5.03;;
3415;SDS011;1721;51.238;9.562;2023-07-22T06:15:52;11.37;;;5.00;;
3415;SDS011;1721;51.238;9.562;2023-07-22T06:18:17;14.00;;;4.73;;
3415;SDS011;1721;51.238;9.562;2023-07-22T06:20:43;11.60;;;4.70;;
3415;SDS011;1721;51.238;9.562;2023-07-22T06:23:09;11.17;;;4.60;;
3415;SDS011;1721;51.238;9.562;2023-07-22T06:25:35;16.70;;;4.97;;
3415;SDS011;1721;51.238;9.562;2023-07-22T06:28:01;11.37;;;4.70;;
3415;SDS011;1721;51.238;9.562;2023-07-22T06:30:26;10.83;;;4.80;;
3415;SDS011;1721;51.238;9.562;2023-07-22T06:32:52;10.90;;;4.90;;
3415;SDS011;1721;51.238;9.562;2023-07-22T06:35:18;11.10;;;5.00;;
3415;SDS011;1721;51.238;9.562;2023-07-22T06:37:43;10.30;;;4.67;;
3415;SDS011;1721;51.238;9.562;2023-07-22T06:40:09;10.47;;;4.93;;
3415;SDS011;1721;51.238;9.562;2023-07-22T06:42:35;13.07;;;5.50;;
3415;SDS011;1721;51.238;9.562;2023-07-22T06:45:01;13.73;;;5.30;;
3415;SDS011;1721;51.238;9.562;2023-07-22T06:47:27;12.77;;;5.47;;
3415;SDS011;1721;51.238;9.562;2023-07-22T06:49:53;12.57;;;6.30;;
3415;SDS011;1721;51.238;9.562;2023-07-22T06:52:18;12.30;;;5.73;;
3415;SDS011;1721;51.238;9.562;2023-07-22T06:54:44;18.23;;;5.20;;
3415;SDS011;1721;51.238;9.562;2023-07-22T06:57:09;13.53;;;5.10;;
3415;SDS011;1721;51.238;9.562;2023-07-22T06:59:35;15.40;;;5.10;;
3415;SDS011;1721;51.238;9.562;2023-07-22T07:02:01;12.70;;;5.60;;
3415;SDS011;1721;51.238;9.562;2023-07-22T07:04:26;12.77;;;5.07;;
3415;SDS011;1721;51.238;9.562;2023-07-22T07:06:52;13.33;;;5.47;;
3415;SDS011;1721;51.238;9.562;2023-07-22T07:09:17;11.17;;;5.50;;
3415;SDS011;1721;51.238;9.562;2023-07-22T07:11:44;13.00;;;5.30;;
3415;SDS011;1721;51.238;9.562;2023-07-22T07:14:09;15.87;;;5.00;;
3415;SDS011;1721;51.238;9.562;2023-07-22T07:16:35;12.80;;;5.10;;
3415;SDS011;1721;51.238;9.562;2023-07-22T07:19:01;12.93;;;5.57;;
3415;SDS011;1721;51.238;9.562;2023-07-22T07:21:27;16.53;;;5.33;;
3415;SDS011;1721;51.238;9.562;2023-07-22T07:23:53;12.30;;;5.70;;
3415;SDS011;1721;51.238;9.562;2023-07-22T07:26:19;11.73;;;5.53;;
3415;SDS011;1721;51.238;9.562;2023-07-22T07:28:46;13.97;;;5.67;;
3415;SDS011;1721;51.238;9.562;2023-07-22T07:31:12;12.93;;;5.77;;
3415;SDS011;1721;51.238;9.562;2023-07-22T07:33:38;11.00;;;5.53;;
3415;SDS011;1721;51.238;9.562;2023-07-22T07:36:03;15.93;;;5.00;;
3415;SDS011;1721;51.238;9.562;2023-07-22T07:38:29;9.73;;;4.37;;
3415;SDS011;1721;51.238;9.562;2023-07-22T07:40:55;16.03;;;5.60;;
3415;SDS011;1721;51.238;9.562;2023-07-22T07:43:22;16.77;;;5.63;;
3415;SDS011;1721;51.238;9.562;2023-07-22T07:45:48;13.37;;;5.27;;
3415;SDS011;1721;51.238;9.562;2023-07-22T07:48:13;14.67;;;5.13;;
3415;SDS011;1721;51.238;9.562;2023-07-22T07:50:39;13.20;;;4.63;;
3415;SDS011;1721;51.238;9.562;2023-07-22T07:53:04;9.97;;;4.73;;
3415;SDS011;1721;51.238;9.562;2023-07-22T07:55:30;10.80;;;5.27;;
3415;SDS011;1721;51.238;9.562;2023-07-22T07:57:56;11.47;;;4.63;;
3415;SDS011;1721;51.238;9.562;2023-07-22T08:00:21;15.40;;;5.63;;
3415;SDS011;1721;51.238;9.562;2023-07-22T08:02:47;13.07;;;5.37;;
3415;SDS011;1721;51.238;9.562;2023-07-22T08:05:12;14.00;;;5.40;;
3415;SDS011;1721;51.238;9.562;2023-07-22T08:07:38;11.00;;;4.97;;
3415;SDS011;1721;51.238;9.562;2023-07-22T08:10:04;9.17;;;4.13;;
3415;SDS011;1721;51.238;9.562;2023-07-22T08:12:32;11.17;;;4.67;;
3415;SDS011;1721;51.238;9.562;2023-07-22T08:14:58;11.17;;;5.17;;
3415;SDS011;1721;51.238;9.562;2023-07-22T08:17:24;9.57;;;4.67;;
3415;SDS011;1721;51.238;9.562;2023-07-22T08:19:49;11.50;;;4.37;;
3415;SDS011;1721;51.238;9.562;2023-07-22T08:22:15;10.87;;;5.17;;
3415;SDS011;1721;51.238;9.562;2023-07-22T08:24:40;12.50;;;4.80;;
3415;SDS011;1721;51.238;9.562;2023-07-22T08:27:07;9.67;;;4.17;;
3415;SDS011;1721;51.238;9.562;2023-07-22T08:29:32;11.20;;;4.93;;
3415;SDS011;1721;51.238;9.562;2023-07-22T08:31:58;11.57;;;4.73;;
3415;SDS011;1721;51.238;9.562;2023-07-22T08:34:23;10.33;;;4.20;;
3415;SDS011;1721;51.238;9.562;2023-07-22T08:36:49;14.90;;;5.03;;
3415;SDS011;1721;51.238;9.562;2023-07-22T08:39:14;11.53;;;4.57;;
3415;SDS011;1721;51.238;9.562;2023-07-22T08:41:40;11.70;;;5.20;;
3415;SDS011;1721;51.238;9.562;2023-07-22T08:44:09;10.00;;;4.80;;
3415;SDS011;1721;51.238;9.562;2023-07-22T08:46:38;10.93;;;5.40;;
3415;SDS011;1721;51.238;9.562;2023-07-22T08:49:05;10.90;;;5.23;;
3415;SDS011;1721;51.238;9.562;2023-07-22T08:51:32;12.40;;;5.00;;
3415;SDS011;1721;51.238;9.562;2023-07-22T08:53:58;10.57;;;4.80;;
3415;SDS011;1721;51.238;9.562;2023-07-22T08:56:26;12.63;;;4.90;;
3415;SDS011;1721;51.238;9.562;2023-07-22T08:58:52;12.03;;;4.90;;
3415;SDS011;1721;51.238;9.562;2023-07-22T09:01:18;11.03;;;5.13;;
3415;SDS011;1721;51.238;9.562;2023-07-22T09:03:43;15.27;;;5.87;;
3415;SDS011;1721;51.238;9.562;2023-07-22T09:06:12;11.40;;;4.90;;
3415;SDS011;1721;51.238;9.562;2023-07-22T09:08:38;11.03;;;5.67;;
3415;SDS011;1721;51.238;9.562;2023-07-22T09:11:04;9.97;;;4.50;;
3415;SDS011;1721;51.238;9.562;2023-07-22T09:13:30;9.43;;;4.40;;
3415;SDS011;1721;51.238;9.562;2023-07-22T09:15:57;14.80;;;6.43;;
3415;SDS011;1721;51.238;9.562;2023-07-22T09:18:24;11.77;;;5.53;;
3415;SDS011;1721;51.238;9.562;2023-07-22T09:20:50;11.83;;;5.07;;
3415;SDS011;1721;51.238;9.562;2023-07-22T09:23:15;11.30;;;5.03;;
3415;SDS011;1721;51.238;9.562;2023-07-22T09:25:41;11.63;;;5.07;;
3415;SDS011;1721;51.238;9.562;2023-07-22T09:28:07;11.43;;;4.90;;
3415;SDS011;1721;51.238;9.562;2023-07-22T09:30:35;11.90;;;4.83;;
3415;SDS011;1721;51.238;9.562;2023-07-22T09:33:04;10.37;;;4.90;;
3415;SDS011;1721;51.238;9.562;2023-07-22T09:35:52;13.63;;;5.23;;
3415;SDS011;1721;51.238;9.562;2023-07-22T09:38:23;8.23;;;3.77;;
3415;SDS011;1721;51.238;9.562;2023-07-22T09:40:50;9.37;;;4.53;;
3415;SDS011;1721;51.238;9.562;2023-07-22T09:43:16;8.50;;;4.27;;
3415;SDS011;1721;51.238;9.562;2023-07-22T09:45:41;10.80;;;4.27;;
3415;SDS011;1721;51.238;9.562;2023-07-22T09:48:11;11.53;;;5.50;;
3415;SDS011;1721;51.238;9.562;2023-07-22T09:50:36;13.03;;;4.93;;
3415;SDS011;1721;51.238;9.562;2023-07-22T09:53:02;10.20;;;4.67;;
3415;SDS011;1721;51.238;9.562;2023-07-22T09:55:29;10.80;;;4.13;;
3415;SDS011;1721;51.238;9.562;2023-07-22T09:57:57;8.90;;;4.00;;
3415;SDS011;1721;51.238;9.562;2023-07-22T10:00:25;10.33;;;4.60;;
3415;SDS011;1721;51.238;9.562;2023-07-22T10:02:58;8.23;;;3.73;;
3415;SDS011;1721;51.238;9.562;2023-07-22T10:05:25;10.40;;;4.57;;
3415;SDS011;1721;51.238;9.562;2023-07-22T10:07:53;11.20;;;4.30;;
3415;SDS011;1721;51.238;9.562;2023-07-22T10:10:25;8.03;;;3.33;;
3415;SDS011;1721;51.238;9.562;2023-07-22T10:12:55;7.97;;;3.43;;
3415;SDS011;1721;51.238;9.562;2023-07-22T10:15:21;9.80;;;4.10;;
3415;SDS011;1721;51.238;9.562;2023-07-22T10:17:49;10.50;;;3.80;;
3415;SDS011;1721;51.238;9.562;2023-07-22T10:20:17;9.27;;;4.40;;
3415;SDS011;1721;51.238;9.562;2023-07-22T10:22:45;7.20;;;3.63;;
3415;SDS011;1721;51.238;9.562;2023-07-22T10:25:12;8.80;;;3.93;;
3415;SDS011;1721;51.238;9.562;2023-07-22T10:27:42;8.90;;;4.20;;
3415;SDS011;1721;51.238;9.562;2023-07-22T10:30:08;9.67;;;4.03;;
3415;SDS011;1721;51.238;9.562;2023-07-22T10:32:38;9.13;;;3.90;;
3415;SDS011;1721;51.238;9.562;2023-07-22T10:35:09;8.90;;;3.80;;
3415;SDS011;1721;51.238;9.562;2023-07-22T10:37:39;8.33;;;3.33;;
3415;SDS011;1721;51.238;9.562;2023-07-22T10:42:51;7.80;;;3.47;;
3415;SDS011;1721;51.238;9.562;2023-07-22T10:45:30;7.37;;;3.17;;
3415;SDS011;1721;51.238;9.562;2023-07-22T10:48:15;8.00;;;3.50;;
3415;SDS011;1721;51.238;9.562;2023-07-22T10:53:19;8.30;;;3.37;;
3415;SDS011;1721;51.238;9.562;2023-07-22T10:56:02;6.50;;;3.23;;
3415;SDS011;1721;51.238;9.562;2023-07-22T11:11:57;9.40;;;3.63;;
3415;SDS011;1721;51.238;9.562;2023-07-22T11:14:54;10.50;;;3.90;;
3415;SDS011;1721;51.238;9.562;2023-07-22T11:17:28;8.57;;;3.97;;
3415;SDS011;1721;51.238;9.562;2023-07-22T11:19:56;10.10;;;3.80;;
3415;SDS011;1721;51.238;9.562;2023-07-22T11:22:22;8.53;;;3.77;;
3415;SDS011;1721;51.238;9.562;2023-07-22T11:24:48;8.93;;;3.60;;
3415;SDS011;1721;51.238;9.562;2023-07-22T11:27:14;9.60;;;3.70;;
3415;SDS011;1721;51.238;9.562;2023-07-22T11:29:40;12.03;;;3.60;;
3415;SDS011;1721;51.238;9.562;2023-07-22T11:32:06;8.13;;;3.13;;
3415;SDS011;1721;51.238;9.562;2023-07-22T11:34:32;7.90;;;3.60;;
3415;SDS011;1721;51.238;9.562;2023-07-22T11:36:58;8.00;;;3.70;;
3415;SDS011;1721;51.238;9.562;2023-07-22T11:39:24;9.27;;;4.47;;
3415;SDS011;1721;51.238;9.562;2023-07-22T11:41:51;12.20;;;4.40;;
3415;SDS011;1721;51.238;9.562;2023-07-22T11:44:19;7.40;;;3.20;;
3415;SDS011;1721;51.238;9.562;2023-07-22T11:46:46;15.33;;;3.53;;
3415;SDS011;1721;51.238;9.562;2023-07-22T11:49:29;7.80;;;3.43;;
3415;SDS011;1721;51.238;9.562;2023-07-22T11:51:57;8.50;;;3.63;;
3415;SDS011;1721;51.238;9.562;2023-07-22T11:54:25;7.80;;;3.80;;
3415;SDS011;1721;51.238;9.562;2023-07-22T11:56:51;9.50;;;4.13;;
3415;SDS011;1721;51.238;9.562;2023-07-22T11:59:17;12.33;;;3.13;;
3415;SDS011;1721;51.238;9.562;2023-07-22T12:01:56;8.03;;;3.30;;
3415;SDS011;1721;51.238;9.562;2023-07-22T12:04:23;9.10;;;3.90;;
3415;SDS011;1721;51.238;9.562;2023-07-22T12:06:48;8.47;;;3.43;;
3415;SDS011;1721;51.238;9.562;2023-07-22T12:09:14;9.50;;;3.07;;
3415;SDS011;1721;51.238;9.562;2023-07-22T12:11:39;8.37;;;3.37;;
3415;SDS011;1721;51.238;9.562;2023-07-22T12:14:08;9.50;;;3.53;;
3415;SDS011;1721;51.238;9.562;2023-07-22T12:16:36;8.90;;;3.00;;
3415;SDS011;1721;51.238;9.562;2023-07-22T12:19:03;8.23;;;3.47;;
3415;SDS011;1721;51.238;9.562;2023-07-22T12:21:29;7.10;;;3.20;;
3415;SDS011;1721;51.238;9.562;2023-07-22T12:23:55;7.47;;;3.27;;
3415;SDS011;1721;51.238;9.562;2023-07-22T12:26:20;6.67;;;3.07;;
3415;SDS011;1721;51.238;9.562;2023-07-22T12:28:46;9.43;;;3.10;;
3415;SDS011;1721;51.238;9.562;2023-07-22T12:31:12;7.83;;;3.30;;
3415;SDS011;1721;51.238;9.562;2023-07-22T12:33:37;6.47;;;2.80;;
3415;SDS011;1721;51.238;9.562;2023-07-22T12:36:03;7.00;;;3.00;;
3415;SDS011;1721;51.238;9.562;2023-07-22T12:38:29;7.07;;;3.10;;
3415;SDS011;1721;51.238;9.562;2023-07-22T12:40:55;6.57;;;3.07;;
3415;SDS011;1721;51.238;9.562;2023-07-22T12:43:20;9.03;;;3.30;;
3415;SDS011;1721;51.238;9.562;2023-07-22T12:45:46;7.60;;;3.53;;
3415;SDS011;1721;51.238;9.562;2023-07-22T12:48:12;6.63;;;2.27;;
3415;SDS011;1721;51.238;9.562;2023-07-22T12:50:37;7.83;;;3.47;;
3415;SDS011;1721;51.238;9.562;2023-07-22T12:53:03;6.10;;;2.67;;
3415;SDS011;1721;51.238;9.562;2023-07-22T12:55:28;10.23;;;3.43;;
3415;SDS011;1721;51.238;9.562;2023-07-22T12:57:54;7.60;;;2.90;;
3415;SDS011;1721;51.238;9.562;2023-07-22T13:00:20;6.97;;;2.77;;
3415;SDS011;1721;51.238;9.562;2023-07-22T13:02:46;6.33;;;2.70;;
3415;SDS011;1721;51.238;9.562;2023-07-22T13:05:12;6.77;;;2.90;;
3415;SDS011;1721;51.238;9.562;2023-07-22T13:07:38;7.10;;;2.87;;
3415;SDS011;1721;51.238;9.562;2023-07-22T13:10:11;5.13;;;2.30;;
3415;SDS011;1721;51.238;9.562;2023-07-22T13:12:40;6.90;;;3.00;;
3415;SDS011;1721;51.238;9.562;2023-07-22T13:15:05;5.63;;;2.50;;
3415;SDS011;1721;51.238;9.562;2023-07-22T13:17:31;6.23;;;2.20;;
3415;SDS011;1721;51.238;9.562;2023-07-22T13:19:57;6.53;;;2.37;;
3415;SDS011;1721;51.238;9.562;2023-07-22T13:22:22;6.60;;;3.00;;
3415;SDS011;1721;51.238;9.562;2023-07-22T13:24:48;7.13;;;2.73;;
3415;SDS011;1721;51.238;9.562;2023-07-22T13:27:13;7.03;;;2.80;;
3415;SDS011;1721;51.238;9.562;2023-07-22T13:29:39;9.60;;;2.80;;
3415;SDS011;1721;51.238;9.562;2023-07-22T13:32:05;6.80;;;2.50;;
3415;SDS011;1721;51.238;9.562;2023-07-22T13:34:31;6.33;;;2.53;;
3415;SDS011;1721;51.238;9.562;2023-07-22T13:36:56;7.00;;;2.73;;
3415;SDS011;1721;51.238;9.562;2023-07-22T13:39:22;7.37;;;2.70;;
3415;SDS011;1721;51.238;9.562;2023-07-22T13:41:47;6.07;;;2.57;;
3415;SDS011;1721;51.238;9.562;2023-07-22T13:44:14;5.80;;;2.20;;
3415;SDS011;1721;51.238;9.562;2023-07-22T13:46:40;12.93;;;3.10;;
3415;SDS011;1721;51.238;9.562;2023-07-22T13:49:05;6.10;;;2.40;;
3415;SDS011;1721;51.238;9.562;2023-07-22T13:51:31;7.00;;;2.57;;
3415;SDS011;1721;51.238;9.562;2023-07-22T13:53:56;5.80;;;2.23;;
3415;SDS011;1721;51.238;9.562;2023-07-22T13:56:23;6.63;;;2.13;;
3415;SDS011;1721;51.238;9.562;2023-07-22T13:58:49;7.93;;;2.77;;
3415;SDS011;1721;51.238;9.562;2023-07-22T14:01:15;6.73;;;2.67;;
3415;SDS011;1721;51.238;9.562;2023-07-22T14:03:40;6.20;;;2.67;;
3415;SDS011;1721;51.238;9.562;2023-07-22T14:06:06;5.10;;;2.07;;
3415;SDS011;1721;51.238;9.562;2023-07-22T14:08:33;9.40;;;2.10;;
3415;SDS011;1721;51.238;9.562;2023-07-22T14:10:58;5.13;;;2.10;;
3415;SDS011;1721;51.238;9.562;2023-07-22T14:13:24;8.17;;;2.90;;
3415;SDS011;1721;51.238;9.562;2023-07-22T14:15:50;7.60;;;2.70;;
3415;SDS011;1721;51.238;9.562;2023-07-22T14:18:15;6.40;;;2.40;;
3415;SDS011;1721;51.238;9.562;2023-07-22T14:20:43;6.43;;;2.20;;
3415;SDS011;1721;51.238;9.562;2023-07-22T14:23:09;7.40;;;2.50;;
3415;SDS011;1721;51.238;9.562;2023-07-22T14:25:35;7.37;;;2.30;;
3415;SDS011;1721;51.238;9.562;2023-07-22T14:28:00;5.90;;;2.23;;
3415;SDS011;1721;51.238;9.562;2023-07-22T14:30:26;7.20;;;2.40;;
3415;SDS011;1721;51.238;9.562;2023-07-22T14:32:51;6.60;;;2.50;;
3415;SDS011;1721;51.238;9.562;2023-07-22T14:35:17;5.73;;;2.20;;
3415;SDS011;1721;51.238;9.562;2023-07-22T14:37:43;5.73;;;2.30;;
3415;SDS011;1721;51.238;9.562;2023-07-22T14:40:08;6.73;;;2.40;;
3415;SDS011;1721;51.238;9.562;2023-07-22T14:42:34;8.83;;;2.63;;
3415;SDS011;1721;51.238;9.562;2023-07-22T14:45:00;6.23;;;2.13;;
3415;SDS011;1721;51.238;9.562;2023-07-22T14:47:25;9.87;;;2.30;;
3415;SDS011;1721;51.238;9.562;2023-07-22T14:49:51;5.57;;;2.00;;
3415;SDS011;1721;51.238;9.562;2023-07-22T14:52:16;8.03;;;2.10;;
3415;SDS011;1721;51.238;9.562;2023-07-22T14:54:42;5.70;;;2.63;;
3415;SDS011;1721;51.238;9.562;2023-07-22T14:57:08;5.97;;;2.40;;
3415;SDS011;1721;51.238;9.562;2023-07-22T14:59:33;6.07;;;1.90;;
3415;SDS011;1721;51.238;9.562;2023-07-22T15:01:59;7.83;;;2.20;;
3415;SDS011;1721;51.238;9.562;2023-07-22T15:04:25;7.30;;;2.20;;
3415;SDS011;1721;51.238;9.562;2023-07-22T15:06:50;8.40;;;2.63;;
3415;SDS011;1721;51.238;9.562;2023-07-22T15:09:16;5.37;;;2.23;;
3415;SDS011;1721;51.238;9.562;2023-07-22T15:11:41;6.83;;;2.10;;
3415;SDS011;1721;51.238;9.562;2023-07-22T15:14:07;7.60;;;2.03;;
3415;SDS011;1721;51.238;9.562;2023-07-22T15:16:32;7.90;;;2.67;;
3415;SDS011;1721;51.238;9.562;2023-07-22T15:18:58;6.60;;;2.00;;